Time;durP1;ratioP1;P1;durP2;ratioP2;P2;SDS_P1;SDS_P2;PMS_P1;PMS_P2;Temp;Humidity;BMP_temperature;BMP_pressure;BME280_temperature;BME280_humidity;BME280_pressure;Samples;Min_cycle;Max_cycle;Signal;HPM_P1;HPM_P2
2024/03/18 00:00:48;;;;;;;4.55;2.50;;;;;;;8.25;100.00;92642.97;6302209;22;20086;-77
2024/03/18 00:03:14;;;;;;;4.15;2.40;;;;;;;8.26;100.00;92643.75;6302352;22;20030;-77
2024/03/18 00:05:39;;;;;;;4.70;2.58;;;;;;;8.27;100.00;92640.09;6275952;22;20019;-77
2024/03/18 00:08:06;;;;;;;4.55;2.58;;;;;;;8.28;100.00;92641.66;6303005;22;20011;-77
2024/03/18 00:10:31;;;;;;;5.35;2.50;;;;;;;8.29;100.00;92640.63;6302773;22;19999;-77
2024/03/18 00:12:57;;;;;;;4.90;2.70;;;;;;;8.30;100.00;92634.34;6302805;22;20360;-77
2024/03/18 00:15:23;;;;;;;4.95;2.42;;;;;;;8.30;100.00;92635.13;6301988;22;20063;-77
2024/03/18 00:17:48;;;;;;;6.63;2.85;;;;;;;8.31;100.00;92630.69;6302634;22;20003;-77
2024/03/18 00:20:14;;;;;;;7.38;3.03;;;;;;;8.31;100.00;92623.66;6302599;22;20034;-77
2024/03/18 00:22:41;;;;;;;5.72;2.80;;;;;;;8.32;100.00;92612.16;6275341;22;20362;-77
2024/03/18 00:25:08;;;;;;;6.55;3.28;;;;;;;8.36;100.00;92607.19;6302632;22;20350;-77
2024/03/18 00:27:34;;;;;;;4.35;2.35;;;;;;;8.41;100.00;92601.97;6275773;22;20049;-77
2024/03/18 00:30:01;;;;;;;4.75;2.45;;;;;;;8.43;100.00;92605.09;6302755;22;20015;-77
2024/03/18 00:32:30;;;;;;;6.38;2.95;;;;;;;8.44;100.00;92603.25;6302891;22;20007;-77
2024/03/18 00:34:56;;;;;;;5.78;3.08;;;;;;;8.43;100.00;92591.28;6302022;22;20003;-77
2024/03/18 00:37:22;;;;;;;7.07;3.20;;;;;;;8.38;100.00;92588.69;6303318;22;20527;-77
2024/03/18 00:39:47;;;;;;;4.80;2.80;;;;;;;8.38;100.00;92584.22;6275341;22;20015;-77
2024/03/18 00:42:13;;;;;;;5.18;2.80;;;;;;;8.36;100.00;92586.31;6302699;22;20022;-77
2024/03/18 00:44:38;;;;;;;5.47;2.63;;;;;;;8.34;100.00;92583.19;6275469;22;20007;-77
2024/03/18 00:47:04;;;;;;;5.88;2.85;;;;;;;8.31;100.00;92576.69;6302718;22;20068;-77
2024/03/18 00:49:29;;;;;;;5.22;2.60;;;;;;;8.29;100.00;92572.81;6302709;22;20011;-77
2024/03/18 00:51:55;;;;;;;6.22;2.72;;;;;;;8.28;100.00;92568.63;6275112;22;20007;-76
2024/03/18 00:54:21;;;;;;;5.28;2.80;;;;;;;8.26;100.00;92565.50;6251799;22;20011;-78
2024/03/18 00:56:47;;;;;;;5.60;2.97;;;;;;;8.26;100.00;92571.53;6304116;22;20042;-77
2024/03/18 00:59:13;;;;;;;7.72;2.60;;;;;;;8.25;100.00;92569.16;6304498;22;20007;-77
2024/03/18 01:01:38;;;;;;;5.47;2.47;;;;;;;8.23;100.00;92566.06;6304550;22;20019;-77
2024/03/18 01:04:04;;;;;;;5.35;2.40;;;;;;;8.24;100.00;92562.38;6304740;22;20394;-77
2024/03/18 01:06:30;;;;;;;4.60;2.53;;;;;;;8.23;100.00;92566.06;6304717;22;20010;-77
2024/03/18 01:08:56;;;;;;;4.85;2.22;;;;;;;8.23;100.00;92563.44;6304675;22;20412;-76
2024/03/18 01:11:22;;;;;;;4.35;2.50;;;;;;;8.19;100.00;92554.59;6304807;22;20035;-77
2024/03/18 01:13:48;;;;;;;4.13;2.10;;;;;;;8.17;100.00;92554.06;6277503;22;20003;-77
2024/03/18 01:16:19;;;;;;;2.58;1.60;;;;;;;8.11;100.00;92554.13;6304434;22;20514;-77
2024/03/18 01:18:45;;;;;;;2.22;1.40;;;;;;;8.02;100.00;92547.91;6304171;22;20007;-77
2024/03/18 01:21:11;;;;;;;2.85;1.50;;;;;;;7.95;100.00;92550.03;6303666;22;20353;-77
2024/03/18 01:23:37;;;;;;;2.50;1.42;;;;;;;7.87;100.00;92542.75;6277157;22;20026;-77
2024/03/18 01:26:03;;;;;;;4.68;1.60;;;;;;;7.81;100.00;92541.97;6304696;22;20011;-77
2024/03/18 01:28:29;;;;;;;3.42;1.58;;;;;;;7.75;100.00;92544.91;6304156;22;20018;-77
2024/03/18 01:30:56;;;;;;;3.72;1.80;;;;;;;7.72;100.00;92538.38;6304436;22;20015;-77
2024/03/18 01:33:23;;;;;;;3.47;1.50;;;;;;;7.68;100.00;92535.53;6304561;22;20010;-77
2024/03/18 01:35:49;;;;;;;3.38;1.80;;;;;;;7.67;100.00;92533.19;6277432;22;20000;-76
2024/03/18 01:38:14;;;;;;;3.38;1.80;;;;;;;7.62;100.00;92526.16;6304268;22;20025;-77
2024/03/18 01:40:43;;;;;;;2.20;1.50;;;;;;;7.60;100.00;92519.69;6304455;22;20015;-77
2024/03/18 01:43:09;;;;;;;4.40;1.60;;;;;;;7.57;100.00;92523.59;6304474;22;20074;-77
2024/03/18 01:45:38;;;;;;;2.65;1.77;;;;;;;7.54;100.00;92518.91;6276920;22;20669;-77
2024/03/18 01:48:04;;;;;;;2.97;1.70;;;;;;;7.52;100.00;92521.00;6304374;22;20015;-77
2024/03/18 01:50:30;;;;;;;5.28;1.80;;;;;;;7.48;100.00;92520.75;6304076;22;20453;-77
2024/03/18 01:52:57;;;;;;;3.13;1.77;;;;;;;7.52;100.00;92521.00;6304520;22;20011;-77
2024/03/18 01:55:23;;;;;;;5.43;1.80;;;;;;;7.52;100.00;92515.81;6304467;22;20111;-77
2024/03/18 01:57:51;;;;;;;3.10;1.80;;;;;;;7.51;100.00;92506.41;6303072;22;20003;-77
2024/03/18 02:00:24;;;;;;;3.25;1.92;;;;;;;7.50;100.00;92504.88;6304243;22;20060;-76
2024/03/18 02:02:50;;;;;;;4.32;2.15;;;;;;;7.48;100.00;92502.53;6303347;22;20352;-77
2024/03/18 02:05:16;;;;;;;3.20;1.92;;;;;;;7.45;100.00;92500.47;6276112;22;20030;-76
2024/03/18 02:07:43;;;;;;;3.70;1.98;;;;;;;7.43;100.00;92499.13;6303680;22;20000;-77
2024/03/18 02:10:09;;;;;;;4.35;2.13;;;;;;;7.41;100.00;92494.22;6303346;22;20102;-77
2024/03/18 02:12:37;;;;;;;3.42;2.10;;;;;;;7.40;100.00;92489.25;6303363;22;20047;-76
2024/03/18 02:15:04;;;;;;;3.25;1.75;;;;;;;7.38;100.00;92483.53;6304239;22;20060;-77
2024/03/18 02:17:29;;;;;;;4.68;1.95;;;;;;;7.38;100.00;92483.53;6304048;22;20025;-77
2024/03/18 02:19:55;;;;;;;4.10;2.20;;;;;;;7.34;100.00;92477.28;6303202;22;20352;-77
2024/03/18 02:22:20;;;;;;;4.05;2.20;;;;;;;7.32;100.00;92484.59;6303786;22;20379;-77
2024/03/18 02:24:46;;;;;;;5.28;2.65;;;;;;;7.29;100.00;92476.28;6304194;22;20016;-77
2024/03/18 02:27:13;;;;;;;4.05;2.20;;;;;;;7.30;100.00;92477.84;6304425;22;20019;-77
2024/03/18 02:29:39;;;;;;;7.18;2.45;;;;;;;7.29;100.00;92472.88;6275209;22;20511;-77
2024/03/18 02:32:05;;;;;;;6.95;2.53;;;;;;;7.26;100.00;92469.00;6275652;22;20091;-76
2024/03/18 02:34:32;;;;;;;4.70;2.25;;;;;;;7.27;100.00;92462.75;6250527;22;20015;-77
2024/03/18 02:36:58;;;;;;;4.00;2.05;;;;;;;7.28;100.00;92459.09;6303074;22;20015;-77
2024/03/18 02:39:24;;;;;;;3.75;2.30;;;;;;;7.28;100.00;92448.69;6303333;22;20002;-77
2024/03/18 02:41:51;;;;;;;3.33;2.10;;;;;;;7.32;100.00;92453.34;6302771;22;20027;-76
2024/03/18 02:44:17;;;;;;;3.80;1.90;;;;;;;7.32;100.00;92456.75;6302475;22;20015;-76
2024/03/18 02:46:43;;;;;;;3.22;1.83;;;;;;;7.33;100.00;92450.47;6303193;22;19995;-77
2024/03/18 02:49:12;;;;;;;2.72;1.63;;;;;;;7.35;100.00;92445.03;6302997;22;20015;-77
2024/03/18 02:51:38;;;;;;;2.97;1.70;;;;;;;7.37;100.00;92442.94;6303043;22;20130;-77
2024/03/18 02:54:04;;;;;;;3.33;1.90;;;;;;;7.38;100.00;92442.66;6302246;22;20363;-77
2024/03/18 02:56:30;;;;;;;4.70;2.17;;;;;;;7.41;100.00;92438.75;6303324;22;20011;-77
2024/03/18 02:58:55;;;;;;;3.85;1.80;;;;;;;7.44;100.00;92441.59;6250665;22;20015;-77
2024/03/18 03:01:25;;;;;;;4.28;1.83;;;;;;;7.47;100.00;92435.06;6303022;22;20366;-76
2024/03/18 03:03:51;;;;;;;4.15;1.60;;;;;;;7.48;100.00;92434.81;6302949;22;20042;-77
2024/03/18 03:06:21;;;;;;;2.60;1.42;;;;;;;7.49;100.00;92425.16;6301728;22;20019;-77
2024/03/18 03:08:47;;;;;;;2.70;1.40;;;;;;;7.50;100.00;92421.50;6303272;22;20018;-77
2024/03/18 03:11:13;;;;;;;4.57;1.63;;;;;;;7.50;100.00;92429.34;6303029;22;20069;-77
2024/03/18 03:13:39;;;;;;;2.55;1.40;;;;;;;7.50;100.00;92421.50;6302357;22;20011;-77
2024/03/18 03:16:11;;;;;;;3.42;1.55;;;;;;;7.50;100.00;92421.50;6249078;22;20019;-76
2024/03/18 03:18:37;;;;;;;3.60;1.60;;;;;;;7.53;100.00;92423.56;6302997;22;20449;-77
2024/03/18 03:21:06;;;;;;;3.38;1.45;;;;;;;7.54;100.00;92409.50;6302372;22;19999;-77
2024/03/18 03:23:36;;;;;;;3.90;1.55;;;;;;;7.55;100.00;92410.28;6301763;22;20011;-77
2024/03/18 03:26:02;;;;;;;2.15;1.40;;;;;;;7.58;100.00;92401.94;6302994;22;20022;-77
2024/03/18 03:28:28;;;;;;;4.05;1.70;;;;;;;7.58;100.00;92402.69;6302472;22;20012;-77
2024/03/18 03:31:08;;;;;;;3.20;1.50;;;;;;;7.62;100.00;92411.53;6275519;22;20166;-77
2024/03/18 03:33:34;;;;;;;2.53;1.35;;;;;;;7.62;100.00;92406.34;6302571;22;20015;-77
2024/03/18 03:36:01;;;;;;;3.03;1.70;;;;;;;7.61;100.00;92399.56;6302213;22;20003;-77
2024/03/18 03:38:26;;;;;;;2.58;1.40;;;;;;;7.64;100.00;92409.44;6301424;22;20090;-77
2024/03/18 03:40:53;;;;;;;3.47;1.27;;;;;;;7.63;100.00;92402.69;6301759;22;20090;-77
2024/03/18 03:43:19;;;;;;;3.95;1.67;;;;;;;7.63;100.00;92404.50;6302516;22;20010;-77
2024/03/18 03:46:07;;;;;;;2.78;1.48;;;;;;;7.64;100.00;92406.84;6302812;22;20388;-77
2024/03/18 03:48:32;;;;;;;2.85;1.27;;;;;;;7.64;100.00;92404.25;6303142;22;20022;-77
2024/03/18 03:50:58;;;;;;;2.47;1.23;;;;;;;7.66;100.00;92411.78;6274850;22;20003;-77
2024/03/18 03:53:30;;;;;;;2.70;1.30;;;;;;;7.66;100.00;92404.75;6303124;22;20015;-77
2024/03/18 03:55:56;;;;;;;2.63;1.50;;;;;;;7.67;100.00;92403.69;6302759;22;20066;-77
2024/03/18 03:58:23;;;;;;;2.17;1.30;;;;;;;7.65;100.00;92405.78;6302907;22;20226;-77
2024/03/18 04:00:49;;;;;;;2.53;1.40;;;;;;;7.64;100.00;92393.03;6302668;22;20034;-77
2024/03/18 04:03:22;;;;;;;2.22;1.40;;;;;;;7.65;100.00;92399.81;6303008;22;20463;-77
2024/03/18 04:05:48;;;;;;;2.58;1.50;;;;;;;7.63;100.00;92397.47;6302931;22;20069;-77
2024/03/18 04:08:14;;;;;;;2.00;1.20;;;;;;;7.61;100.00;92394.38;6275684;22;19999;-76
2024/03/18 04:10:40;;;;;;;1.88;1.20;;;;;;;7.59;100.00;92396.47;6302950;22;20086;-77
2024/03/18 04:13:06;;;;;;;2.30;1.27;;;;;;;7.59;100.00;92391.25;6302880;22;20337;-77
2024/03/18 04:15:32;;;;;;;2.47;1.33;;;;;;;7.60;100.00;92399.84;6303091;22;20003;-77
2024/03/18 04:17:57;;;;;;;2.22;1.20;;;;;;;7.61;100.00;92398.78;6302925;22;20015;-77
2024/03/18 04:20:23;;;;;;;2.40;1.40;;;;;;;7.62;100.00;92401.13;6302131;22;20011;-77
2024/03/18 04:22:50;;;;;;;2.70;1.50;;;;;;;7.65;100.00;92405.78;6275118;22;20019;-77
2024/03/18 04:25:20;;;;;;;2.92;1.48;;;;;;;7.66;100.00;92404.75;6303013;22;20356;-77
2024/03/18 04:27:47;;;;;;;2.15;1.40;;;;;;;7.65;100.00;92400.56;6304189;22;20022;-76
2024/03/18 04:30:19;;;;;;;4.32;1.60;;;;;;;7.66;100.00;92401.38;6302685;22;20348;-77
2024/03/18 04:32:48;;;;;;;4.13;1.40;;;;;;;7.67;100.00;92402.91;6275125;22;20011;-77
2024/03/18 04:35:15;;;;;;;3.15;1.58;;;;;;;7.64;100.00;92391.22;6302767;22;20035;-77
2024/03/18 04:37:48;;;;;;;4.03;1.50;;;;;;;7.66;100.00;92402.16;6302855;22;20364;-77
2024/03/18 04:40:14;;;;;;;3.85;1.60;;;;;;;7.66;100.00;92396.16;6302872;22;20011;-77
2024/03/18 04:42:40;;;;;;;3.72;1.50;;;;;;;7.65;100.00;92405.78;6302253;22;20025;-77
2024/03/18 04:45:09;;;;;;;2.70;1.48;;;;;;;7.66;100.00;92402.16;6302979;22;20078;-77
2024/03/18 04:47:38;;;;;;;2.42;1.42;;;;;;;7.67;100.00;92408.13;6302156;22;20018;-77
2024/03/18 04:50:06;;;;;;;1.90;1.30;;;;;;;7.68;100.00;92413.06;6249516;22;20395;-77
2024/03/18 04:52:31;;;;;;;3.67;1.50;;;;;;;7.70;100.00;92412.78;6302678;22;20000;-77
2024/03/18 04:54:57;;;;;;;3.60;1.65;;;;;;;7.68;100.00;92405.25;6302114;22;20397;-77
2024/03/18 04:57:22;;;;;;;3.92;1.67;;;;;;;7.71;100.00;92403.94;6302857;22;20296;-77
2024/03/18 04:59:48;;;;;;;3.10;1.70;;;;;;;7.71;100.00;92399.50;6275261;22;20022;-77
2024/03/18 05:02:13;;;;;;;5.28;1.80;;;;;;;7.71;100.00;92394.28;6302758;22;20015;-77
2024/03/18 05:04:39;;;;;;;3.95;1.67;;;;;;;7.72;100.00;92385.44;6249411;22;20022;-77
2024/03/18 05:07:05;;;;;;;3.45;1.85;;;;;;;7.74;100.00;92385.16;6303311;22;20323;-77
2024/03/18 05:09:30;;;;;;;3.20;1.80;;;;;;;7.75;100.00;92385.94;6302962;22;20051;-77
2024/03/18 05:11:56;;;;;;;3.08;1.85;;;;;;;7.74;100.00;92381.78;6302589;22;20023;-77
2024/03/18 05:14:21;;;;;;;4.30;2.13;;;;;;;7.74;100.00;92373.97;6274484;22;20003;-77
2024/03/18 05:16:47;;;;;;;4.00;2.00;;;;;;;7.74;100.00;92379.94;6302667;22;20047;-77
2024/03/18 05:19:12;;;;;;;3.78;2.00;;;;;;;7.72;100.00;92369.81;6302043;22;20019;-77
2024/03/18 05:21:38;;;;;;;7.32;2.17;;;;;;;7.71;100.00;92372.69;6302246;22;20022;-76
2024/03/18 05:24:04;;;;;;;3.53;1.80;;;;;;;7.70;100.00;92371.91;6300922;22;20046;-78
2024/03/18 05:26:29;;;;;;;3.35;1.80;;;;;;;7.69;100.00;92365.13;6303058;22;20022;-78
2024/03/18 05:28:55;;;;;;;3.75;2.00;;;;;;;7.69;100.00;92367.72;6303109;22;20019;-77
2024/03/18 05:31:21;;;;;;;3.65;2.00;;;;;;;7.68;100.00;92368.00;6276264;22;20014;-77
2024/03/18 05:33:46;;;;;;;4.03;2.00;;;;;;;7.68;100.00;92368.00;6302595;22;20345;-77
2024/03/18 05:36:12;;;;;;;5.70;2.05;;;;;;;7.69;100.00;92369.56;6275798;22;20397;-79
2024/03/18 05:38:38;;;;;;;3.58;2.10;;;;;;;7.69;100.00;92365.13;6305432;22;20027;-76
2024/03/18 05:41:04;;;;;;;5.82;2.10;;;;;;;7.70;100.00;92371.91;6276484;22;20015;-76
2024/03/18 05:43:30;;;;;;;4.68;2.05;;;;;;;7.71;100.00;92365.63;6302696;22;20018;-76
2024/03/18 05:45:56;;;;;;;4.43;2.42;;;;;;;7.72;100.00;92367.19;6303639;22;20011;-76
2024/03/18 05:48:22;;;;;;;6.90;2.08;;;;;;;7.72;100.00;92364.59;6303265;22;20076;-76
2024/03/18 05:50:48;;;;;;;3.00;1.90;;;;;;;7.72;100.00;92363.78;6302624;22;20520;-75
2024/03/18 05:53:14;;;;;;;2.90;1.80;;;;;;;7.75;100.00;92362.50;6276340;22;20408;-75
2024/03/18 05:55:39;;;;;;;4.15;2.10;;;;;;;7.75;100.00;92355.47;6275660;22;20022;-76
2024/03/18 05:58:05;;;;;;;4.35;1.80;;;;;;;7.77;100.00;92362.97;6303558;22;20063;-76
2024/03/18 06:00:30;;;;;;;3.40;1.90;;;;;;;7.77;100.00;92357.78;6302971;22;20019;-77
2024/03/18 06:02:56;;;;;;;3.90;1.83;;;;;;;7.83;100.00;92364.50;6275913;22;20072;-76
2024/03/18 06:05:22;;;;;;;3.08;1.77;;;;;;;7.87;100.00;92366.31;6274085;22;20015;-76
2024/03/18 06:07:48;;;;;;;2.78;1.60;;;;;;;7.92;100.00;92360.28;6274710;22;20019;-76
2024/03/18 06:10:16;;;;;;;3.88;1.48;;;;;;;7.97;100.00;92357.66;6303487;22;20364;-79
2024/03/18 06:12:42;;;;;;;4.40;1.63;;;;;;;8.02;100.00;92362.81;6276715;22;20039;-76
2024/03/18 06:15:08;;;;;;;5.15;1.60;;;;;;;8.11;100.00;92365.63;6276645;22;20073;-76
2024/03/18 06:17:34;;;;;;;4.90;1.65;;;;;;;8.19;100.00;92362.41;6276395;22;20011;-75
2024/03/18 06:20:03;;;;;;;4.82;2.00;;;;;;;8.25;100.00;92365.75;6303402;22;20019;-76
2024/03/18 06:22:36;;;;;;;2.95;1.60;;;;;;;8.30;100.00;92365.72;6303322;22;20011;-78
2024/03/18 06:27:49;;;;;;;3.85;1.85;;;;;;;8.42;100.00;92342.69;6303603;22;20011;-75
2024/03/18 06:30:14;;;;;;;3.40;1.60;;;;;;;8.49;100.00;92348.34;6276647;22;20074;-75
2024/03/18 06:32:40;;;;;;;6.25;1.70;;;;;;;8.57;100.00;92354.00;6304513;22;20023;-75
2024/03/18 06:35:06;;;;;;;3.35;1.77;;;;;;;8.60;100.00;92356.06;6303980;22;20015;-76
2024/03/18 06:37:35;;;;;;;2.58;1.52;;;;;;;8.61;100.00;92358.41;6224448;22;20010;-75
2024/03/18 06:40:04;;;;;;;4.25;1.90;;;;;;;8.63;100.00;92356.31;6302338;22;20157;-76
2024/03/18 06:42:30;;;;;;;3.72;1.60;;;;;;;8.66;100.00;92352.34;6302170;22;20060;-75
2024/03/18 06:44:55;;;;;;;3.92;2.28;;;;;;;8.70;100.00;92355.97;6303990;22;20379;-76
2024/03/18 06:47:21;;;;;;;3.53;1.95;;;;;;;8.75;100.00;92356.69;6275779;22;20345;-75
2024/03/18 06:49:47;;;;;;;3.50;1.70;;;;;;;8.81;100.00;92351.44;6303124;22;20416;-76
2024/03/18 06:52:12;;;;;;;3.92;1.90;;;;;;;8.86;100.00;92351.38;6302995;22;20007;-76
2024/03/18 06:54:38;;;;;;;3.50;1.75;;;;;;;8.89;100.00;92358.63;6303617;22;20019;-76
2024/03/18 06:57:04;;;;;;;3.22;1.73;;;;;;;8.93;100.00;92360.41;6303422;22;20399;-76
2024/03/18 06:59:29;;;;;;;3.63;1.70;;;;;;;8.98;100.00;92358.78;6303280;22;20393;-76
2024/03/18 07:01:55;;;;;;;4.80;1.70;;;;;;;9.03;100.00;92364.75;6303694;22;20054;-75
2024/03/18 07:04:21;;;;;;;2.95;1.60;;;;;;;9.09;100.00;92349.78;6303028;22;20098;-76
2024/03/18 07:06:46;;;;;;;3.00;1.55;;;;;;;9.18;100.00;92345.50;6276147;22;19999;-75
2024/03/18 07:09:11;;;;;;;3.63;1.63;;;;;;;9.27;100.00;92348.25;6303015;22;20465;-75
2024/03/18 07:11:37;;;;;;;4.20;1.80;;;;;;;9.27;100.00;92343.81;6303187;22;20015;-76
2024/03/18 07:14:03;;;;;;;3.80;1.80;;;;;;;9.28;100.00;92336.78;6303074;22;20396;-75
2024/03/18 07:16:28;;;;;;;2.20;1.40;;;;;;;9.31;100.00;92342.19;6303246;22;20065;-75
2024/03/18 07:18:54;;;;;;;3.40;1.80;;;;;;;9.38;100.00;92349.69;6302702;22;20015;-75
2024/03/18 07:21:19;;;;;;;6.03;2.00;;;;;;;9.54;99.96;92353.63;6274976;22;20007;-75
2024/03/18 07:23:45;;;;;;;2.90;1.80;;;;;;;9.54;98.93;92353.63;6302485;22;20015;-75
2024/03/18 07:26:10;;;;;;;3.00;1.70;;;;;;;9.61;100.00;92363.75;6249947;22;20011;-75
2024/03/18 07:28:36;;;;;;;2.58;1.52;;;;;;;9.69;98.95;92357.91;6303118;22;20022;-75
2024/03/18 07:31:03;;;;;;;4.07;1.90;;;;;;;9.79;96.48;92354.34;6302652;22;20027;-76
2024/03/18 07:33:32;;;;;;;3.28;2.00;;;;;;;9.88;96.27;92362.31;6303192;22;20094;-76
2024/03/18 07:35:57;;;;;;;4.13;1.90;;;;;;;9.95;96.57;92367.97;6302500;22;20047;-77
2024/03/18 07:38:23;;;;;;;3.38;1.77;;;;;;;10.03;97.43;92358.72;6302693;22;20046;-76
2024/03/18 07:40:50;;;;;;;2.78;1.60;;;;;;;10.11;96.81;92360.66;6302844;22;20098;-77
2024/03/18 07:43:15;;;;;;;3.63;1.75;;;;;;;10.18;96.79;92351.41;6302973;22;20106;-77
2024/03/18 07:45:42;;;;;;;4.20;1.90;;;;;;;10.31;96.42;92352.53;6303685;22;20039;-77
2024/03/18 07:48:08;;;;;;;4.40;2.05;;;;;;;10.50;96.03;92344.63;6276365;22;19999;-80
2024/03/18 07:50:34;;;;;;;3.85;1.90;;;;;;;10.40;99.50;92350.81;6306048;22;20030;-76
2024/03/18 07:53:01;;;;;;;4.05;1.90;;;;;;;10.40;99.90;92353.44;6305210;22;20018;-79
2024/03/18 07:55:26;;;;;;;4.28;2.10;;;;;;;10.38;100.00;92354.75;6303830;22;20034;-77
2024/03/18 07:57:52;;;;;;;5.00;2.17;;;;;;;10.39;100.00;92345.88;6302733;22;20015;-76
2024/03/18 08:00:18;;;;;;;5.05;2.80;;;;;;;10.29;99.38;92346.03;6302272;22;20019;-76
2024/03/18 08:02:44;;;;;;;5.50;2.42;;;;;;;10.19;98.45;92352.94;6275143;22;20011;-77
2024/03/18 08:05:11;;;;;;;4.00;2.30;;;;;;;10.18;99.15;92348.03;6302953;22;20349;-76
2024/03/18 08:07:38;;;;;;;5.07;2.53;;;;;;;10.09;100.00;92347.13;6301985;22;20015;-76
2024/03/18 08:10:04;;;;;;;5.68;2.83;;;;;;;10.27;100.00;92358.59;6302380;22;19999;-76
2024/03/18 08:12:29;;;;;;;4.63;2.55;;;;;;;10.10;100.00;92362.50;6302897;22;20009;-76
2024/03/18 08:14:55;;;;;;;4.78;2.50;;;;;;;10.10;99.23;92353.91;6303259;22;20084;-76
2024/03/18 08:17:21;;;;;;;5.63;2.83;;;;;;;10.16;98.36;92350.91;6304042;22;20049;-78
2024/03/18 08:19:47;;;;;;;6.70;3.55;;;;;;;10.23;100.00;92357.63;6303145;22;20035;-77
2024/03/18 08:22:16;;;;;;;4.40;2.70;;;;;;;10.28;100.00;92354.91;6303185;22;20445;-76
2024/03/18 08:24:48;;;;;;;5.10;2.88;;;;;;;10.31;100.00;92351.75;6274850;22;20038;-77
2024/03/18 08:27:14;;;;;;;4.35;2.38;;;;;;;10.36;99.64;92359.53;6303362;22;20017;-81
2024/03/18 08:29:40;;;;;;;4.72;2.95;;;;;;;10.39;100.00;92359.72;6302299;22;20086;-76
2024/03/18 08:32:07;;;;;;;7.75;3.22;;;;;;;10.57;100.00;92363.34;6303048;22;20438;-76
2024/03/18 08:34:33;;;;;;;12.48;5.70;;;;;;;10.51;100.00;92354.03;6303059;22;20018;-76
2024/03/18 08:36:59;;;;;;;11.80;6.78;;;;;;;10.55;100.00;92354.22;6303047;22;20015;-76
2024/03/18 08:39:25;;;;;;;11.48;7.30;;;;;;;10.62;100.00;92354.63;6302971;22;20454;-76
2024/03/18 08:41:51;;;;;;;9.50;5.22;;;;;;;10.69;100.00;92357.63;6302945;22;20023;-77
2024/03/18 08:44:17;;;;;;;9.35;5.45;;;;;;;10.77;100.00;92356.97;6302829;22;20011;-76
2024/03/18 08:46:45;;;;;;;7.90;4.97;;;;;;;10.69;100.00;92359.47;6302835;22;20003;-76
2024/03/18 08:49:13;;;;;;;9.35;4.85;;;;;;;10.64;100.00;92349.88;6303651;22;20348;-76
2024/03/18 08:51:42;;;;;;;6.75;4.07;;;;;;;10.65;100.00;92348.03;6302507;22;20038;-77
2024/03/18 08:54:08;;;;;;;12.52;7.45;;;;;;;10.61;100.00;92346.00;6303853;22;20086;-76
2024/03/18 08:56:33;;;;;;;10.25;6.07;;;;;;;10.65;100.00;92340.19;6303225;22;20047;-77
2024/03/18 08:58:59;;;;;;;11.10;6.38;;;;;;;10.58;100.00;92348.41;6276008;22;20049;-77
2024/03/18 09:01:25;;;;;;;9.05;5.50;;;;;;;10.68;100.00;92342.22;6302694;22;20433;-77
2024/03/18 09:03:50;;;;;;;13.23;5.88;;;;;;;10.75;100.00;92347.84;6302932;22;20437;-76
2024/03/18 09:06:16;;;;;;;7.57;4.22;;;;;;;10.61;100.00;92346.00;6302784;22;20525;-77
2024/03/18 09:08:45;;;;;;;6.90;4.45;;;;;;;10.42;100.00;92355.75;6302987;22;20026;-76
2024/03/18 09:11:12;;;;;;;12.73;6.68;;;;;;;10.25;100.00;92345.81;6303272;22;20060;-76
2024/03/18 09:13:39;;;;;;;9.80;5.35;;;;;;;10.28;100.00;92349.69;6303873;22;20011;-76
2024/03/18 09:16:05;;;;;;;11.48;6.38;;;;;;;10.29;100.00;92351.25;6304828;22;20072;-76
2024/03/18 09:18:31;;;;;;;12.57;7.10;;;;;;;10.20;100.00;92354.50;6277237;22;20056;-77
2024/03/18 09:20:57;;;;;;;9.60;5.75;;;;;;;10.32;100.00;92345.47;6304298;22;20045;-76
2024/03/18 09:23:25;;;;;;;10.10;5.72;;;;;;;10.26;100.00;92325.66;6304603;22;20011;-76
2024/03/18 09:25:50;;;;;;;13.35;7.50;;;;;;;10.27;100.00;92328.00;6304711;22;20011;-76
2024/03/18 09:28:16;;;;;;;15.85;7.45;;;;;;;10.36;100.00;92341.22;6304743;22;20015;-77
2024/03/18 09:30:43;;;;;;;10.65;5.93;;;;;;;10.42;100.00;92345.28;6304753;22;20078;-76
2024/03/18 09:33:08;;;;;;;13.10;7.28;;;;;;;10.48;100.00;92349.38;6277279;22;20072;-77
2024/03/18 09:35:34;;;;;;;18.10;10.38;;;;;;;10.42;100.00;92350.50;6304720;22;20387;-76
2024/03/18 09:38:00;;;;;;;15.15;8.88;;;;;;;10.50;100.00;92352.47;6277241;22;20019;-76
2024/03/18 09:40:30;;;;;;;15.38;8.10;;;;;;;10.64;100.00;92342.03;6304385;22;20028;-77
2024/03/18 09:42:56;;;;;;;15.07;9.07;;;;;;;10.70;100.00;92345.34;6304651;22;20011;-76
2024/03/18 09:45:23;;;;;;;18.63;9.18;;;;;;;10.71;100.00;92334.56;6305091;22;20015;-76
2024/03/18 09:47:49;;;;;;;12.95;8.77;;;;;;;10.69;100.00;92333.31;6304421;22;20099;-76
2024/03/18 09:50:16;;;;;;;15.13;10.00;;;;;;;10.81;100.00;92336.22;6303753;22;20370;-76
2024/03/18 09:52:43;;;;;;;13.25;8.32;;;;;;;10.84;100.00;92325.16;6302635;22;20440;-76
2024/03/18 09:55:30;;;;;;;12.32;7.07;;;;;;;11.00;100.00;92336.91;6303766;22;20102;-76
2024/03/18 09:57:56;;;;;;;11.68;6.53;;;;;;;11.16;100.00;92339.22;6303812;22;20104;-76
2024/03/18 10:00:22;;;;;;;10.13;6.93;;;;;;;11.00;100.00;92323.81;6275972;22;19999;-76
2024/03/18 10:02:48;;;;;;;14.73;8.18;;;;;;;11.06;100.00;92321.09;6303840;22;20054;-78
2024/03/18 10:05:14;;;;;;;13.75;9.00;;;;;;;10.88;100.00;92328.75;6304041;22;20015;-76
2024/03/18 10:07:43;;;;;;;14.70;9.18;;;;;;;11.06;100.00;92331.56;6276554;22;20023;-76
2024/03/18 10:10:17;;;;;;;15.00;8.18;;;;;;;11.25;100.00;92324.38;6303576;22;20484;-76
2024/03/18 10:12:43;;;;;;;15.88;10.02;;;;;;;11.07;100.00;92315.56;6303733;22;20307;-76
2024/03/18 10:15:12;;;;;;;18.38;11.32;;;;;;;10.98;100.00;92317.31;6303878;22;20095;-76
2024/03/18 10:17:37;;;;;;;16.48;11.15;;;;;;;11.00;100.00;92321.19;6304118;22;20011;-76
2024/03/18 10:20:17;;;;;;;10.05;6.25;;;;;;;11.06;100.00;92294.91;6276097;22;20471;-76
2024/03/18 10:22:43;;;;;;;15.98;9.73;;;;;;;11.00;100.00;92310.72;6303913;22;20011;-76
2024/03/18 10:25:18;;;;;;;15.60;9.93;;;;;;;11.25;100.00;92308.63;6303265;22;20069;-75
2024/03/18 10:27:44;;;;;;;16.85;9.80;;;;;;;11.97;100.00;92301.84;6303457;22;20068;-76
2024/03/18 10:30:13;;;;;;;12.55;8.25;;;;;;;12.34;100.00;92299.91;6303163;22;20003;-76
2024/03/18 10:32:42;;;;;;;13.00;8.35;;;;;;;12.79;100.00;92295.34;6304339;22;20082;-76
2024/03/18 10:35:20;;;;;;;22.27;13.38;;;;;;;13.24;100.00;92281.22;6303845;22;20025;-76
2024/03/18 10:38:06;;;;;;;17.52;9.10;;;;;;;13.39;100.00;92280.81;6277040;22;20285;-76
2024/03/18 10:40:38;;;;;;;13.68;7.93;;;;;;;13.68;100.00;92285.47;6303257;22;20050;-76
2024/03/18 10:43:04;;;;;;;;;;;;;;;13.93;100.00;92283.91;6304726;22;20015;-76
2024/03/18 10:45:36;;;;;;;13.70;8.82;;;;;;;13.50;89.78;92282.06;6303399;22;19907;-76
2024/03/18 10:48:05;;;;;;;11.55;7.47;;;;;;;13.97;92.62;92272.78;6302647;22;20038;-78
2024/03/18 10:50:32;;;;;;;13.75;8.63;;;;;;;13.87;85.36;92279.91;6302825;22;19995;-76
2024/03/18 10:52:59;;;;;;;9.38;5.53;;;;;;;14.03;89.04;92282.81;6303586;22;20015;-76
2024/03/18 10:55:26;;;;;;;7.90;5.20;;;;;;;13.94;83.75;92290.72;6303170;22;20409;-76
2024/03/18 10:57:58;;;;;;;13.27;7.40;;;;;;;13.54;84.34;92287.47;6303183;22;20460;-76
2024/03/18 11:00:24;;;;;;;11.95;7.30;;;;;;;14.02;93.51;92286.53;6303500;22;20099;-76
2024/03/18 11:02:59;;;;;;;14.00;8.15;;;;;;;14.22;90.14;92277.22;6303496;22;20038;-76
2024/03/18 11:05:30;;;;;;;13.02;7.57;;;;;;;14.35;89.09;92270.97;6251314;22;20069;-77
2024/03/18 11:08:02;;;;;;;12.68;8.25;;;;;;;14.02;91.20;92275.22;6303678;22;20038;-76
2024/03/18 11:10:31;;;;;;;13.48;8.55;;;;;;;13.84;86.50;92272.59;6303747;22;20022;-76
2024/03/18 11:13:07;;;;;;;12.95;7.40;;;;;;;14.31;85.85;92280.59;6303543;22;20026;-76
2024/03/18 11:15:32;;;;;;;13.13;8.18;;;;;;;14.11;85.67;92283.88;6303933;22;20037;-76
2024/03/18 11:18:07;;;;;;;14.23;8.02;;;;;;;14.43;80.71;92284.44;6303629;22;20061;-76
2024/03/18 11:20:50;;;;;;;9.63;5.28;;;;;;;14.30;83.71;92270.41;6302438;22;20007;-76
2024/03/18 11:23:20;;;;;;;11.68;7.15;;;;;;;14.10;85.58;92271.81;6302938;22;20019;-76
2024/03/18 11:26:07;;;;;;;9.38;6.18;;;;;;;14.16;84.59;92267.91;6303001;22;20017;-76
2024/03/18 11:28:37;;;;;;;29.10;6.32;;;;;;;13.68;87.41;92280.19;6303430;22;20011;-76
2024/03/18 11:31:04;;;;;;;12.20;7.25;;;;;;;13.65;87.06;92282.69;6302971;22;20022;-76